sensor_id;sensor_type;location;lat;lon;timestamp;temperature;humidity
20568;DHT22;10442;49.932;11.592;2023-11-19T00:00:11;7.40;80.70
20568;DHT22;10442;49.932;11.592;2023-11-19T00:02:43;7.40;80.80
20568;DHT22;10442;49.932;11.592;2023-11-19T00:05:10;7.40;80.90
20568;DHT22;10442;49.932;11.592;2023-11-19T00:07:41;7.40;80.90
20568;DHT22;10442;49.932;11.592;2023-11-19T00:10:10;7.40;81.00
20568;DHT22;10442;49.932;11.592;2023-11-19T00:12:44;7.40;81.00
20568;DHT22;10442;49.932;11.592;2023-11-19T00:15:18;7.40;81.00
20568;DHT22;10442;49.932;11.592;2023-11-19T00:17:47;7.40;81.00
20568;DHT22;10442;49.932;11.592;2023-11-19T00:20:18;7.40;81.00
20568;DHT22;10442;49.932;11.592;2023-11-19T00:22:46;7.50;81.10
20568;DHT22;10442;49.932;11.592;2023-11-19T00:25:18;7.50;81.10
20568;DHT22;10442;49.932;11.592;2023-11-19T00:27:46;7.50;81.10
20568;DHT22;10442;49.932;11.592;2023-11-19T00:30:13;7.50;81.00
20568;DHT22;10442;49.932;11.592;2023-11-19T00:32:42;7.50;81.00
20568;DHT22;10442;49.932;11.592;2023-11-19T00:35:10;7.60;81.10
20568;DHT22;10442;49.932;11.592;2023-11-19T00:37:38;7.60;81.10
20568;DHT22;10442;49.932;11.592;2023-11-19T00:40:06;7.60;81.10
20568;DHT22;10442;49.932;11.592;2023-11-19T00:42:34;7.60;81.20
20568;DHT22;10442;49.932;11.592;2023-11-19T00:45:01;7.60;81.30
20568;DHT22;10442;49.932;11.592;2023-11-19T00:47:29;7.60;81.30
20568;DHT22;10442;49.932;11.592;2023-11-19T00:49:58;7.70;81.30
20568;DHT22;10442;49.932;11.592;2023-11-19T00:52:26;7.70;81.40
20568;DHT22;10442;49.932;11.592;2023-11-19T00:54:53;7.70;81.50
20568;DHT22;10442;49.932;11.592;2023-11-19T00:57:21;7.70;81.40
20568;DHT22;10442;49.932;11.592;2023-11-19T00:59:48;7.70;81.30
20568;DHT22;10442;49.932;11.592;2023-11-19T01:02:16;7.80;81.30
20568;DHT22;10442;49.932;11.592;2023-11-19T01:04:44;7.80;81.20
20568;DHT22;10442;49.932;11.592;2023-11-19T01:07:13;7.80;81.10
20568;DHT22;10442;49.932;11.592;2023-11-19T01:09:43;7.80;81.00
20568;DHT22;10442;49.932;11.592;2023-11-19T01:12:11;7.90;81.00
20568;DHT22;10442;49.932;11.592;2023-11-19T01:14:38;7.90;80.90
20568;DHT22;10442;49.932;11.592;2023-11-19T01:17:06;7.90;80.80
20568;DHT22;10442;49.932;11.592;2023-11-19T01:19:34;7.90;80.80
20568;DHT22;10442;49.932;11.592;2023-11-19T01:22:02;8.00;80.80
20568;DHT22;10442;49.932;11.592;2023-11-19T01:24:30;8.00;80.80
20568;DHT22;10442;49.932;11.592;2023-11-19T01:26:58;8.00;80.70
20568;DHT22;10442;49.932;11.592;2023-11-19T01:29:28;8.00;80.80
20568;DHT22;10442;49.932;11.592;2023-11-19T01:31:56;8.10;80.80
20568;DHT22;10442;49.932;11.592;2023-11-19T01:34:23;8.10;80.70
20568;DHT22;10442;49.932;11.592;2023-11-19T01:36:51;8.10;80.60
20568;DHT22;10442;49.932;11.592;2023-11-19T01:39:18;8.10;80.50
20568;DHT22;10442;49.932;11.592;2023-11-19T01:41:47;8.20;80.60
20568;DHT22;10442;49.932;11.592;2023-11-19T01:44:15;8.20;80.40
20568;DHT22;10442;49.932;11.592;2023-11-19T01:46:44;8.20;80.40
20568;DHT22;10442;49.932;11.592;2023-11-19T01:49:14;8.20;80.40
20568;DHT22;10442;49.932;11.592;2023-11-19T01:51:44;8.20;80.40
20568;DHT22;10442;49.932;11.592;2023-11-19T01:54:12;8.20;80.40
20568;DHT22;10442;49.932;11.592;2023-11-19T01:56:40;8.20;80.40
20568;DHT22;10442;49.932;11.592;2023-11-19T01:59:10;8.20;80.40
20568;DHT22;10442;49.932;11.592;2023-11-19T02:01:41;8.20;80.50
20568;DHT22;10442;49.932;11.592;2023-11-19T02:04:11;8.20;80.50
20568;DHT22;10442;49.932;11.592;2023-11-19T02:06:40;8.30;80.70
20568;DHT22;10442;49.932;11.592;2023-11-19T02:09:09;8.30;80.60
20568;DHT22;10442;49.932;11.592;2023-11-19T02:11:40;8.20;80.50
20568;DHT22;10442;49.932;11.592;2023-11-19T02:14:08;8.30;80.70
20568;DHT22;10442;49.932;11.592;2023-11-19T02:16:35;8.20;80.70
20568;DHT22;10442;49.932;11.592;2023-11-19T02:19:03;8.20;80.60
20568;DHT22;10442;49.932;11.592;2023-11-19T02:21:33;8.20;80.70
20568;DHT22;10442;49.932;11.592;2023-11-19T02:24:03;8.20;80.90
20568;DHT22;10442;49.932;11.592;2023-11-19T02:29:23;8.20;81.10
20568;DHT22;10442;49.932;11.592;2023-11-19T02:31:50;8.20;81.10
20568;DHT22;10442;49.932;11.592;2023-11-19T02:34:18;8.20;81.20
20568;DHT22;10442;49.932;11.592;2023-11-19T02:36:46;8.20;81.20
20568;DHT22;10442;49.932;11.592;2023-11-19T02:39:14;8.30;81.30
20568;DHT22;10442;49.932;11.592;2023-11-19T02:41:42;8.30;81.30
20568;DHT22;10442;49.932;11.592;2023-11-19T02:44:09;8.30;81.20
20568;DHT22;10442;49.932;11.592;2023-11-19T02:46:37;8.30;81.20
20568;DHT22;10442;49.932;11.592;2023-11-19T02:49:04;8.30;81.10
20568;DHT22;10442;49.932;11.592;2023-11-19T02:51:34;8.40;81.20
20568;DHT22;10442;49.932;11.592;2023-11-19T02:54:02;8.40;81.20
20568;DHT22;10442;49.932;11.592;2023-11-19T02:56:31;8.40;81.20
20568;DHT22;10442;49.932;11.592;2023-11-19T02:59:02;8.40;81.10
20568;DHT22;10442;49.932;11.592;2023-11-19T03:01:41;8.40;81.10
20568;DHT22;10442;49.932;11.592;2023-11-19T03:04:11;8.40;81.10
20568;DHT22;10442;49.932;11.592;2023-11-19T03:06:39;8.40;81.00
20568;DHT22;10442;49.932;11.592;2023-11-19T03:09:07;8.40;81.10
20568;DHT22;10442;49.932;11.592;2023-11-19T03:11:38;8.40;81.10
20568;DHT22;10442;49.932;11.592;2023-11-19T03:14:05;8.40;81.20
20568;DHT22;10442;49.932;11.592;2023-11-19T03:16:33;8.40;81.20
20568;DHT22;10442;49.932;11.592;2023-11-19T03:19:02;8.40;81.30
20568;DHT22;10442;49.932;11.592;2023-11-19T03:21:31;8.40;81.30
20568;DHT22;10442;49.932;11.592;2023-11-19T03:23:59;8.40;81.30
20568;DHT22;10442;49.932;11.592;2023-11-19T03:26:27;8.40;81.30
20568;DHT22;10442;49.932;11.592;2023-11-19T03:28:56;8.40;81.30
20568;DHT22;10442;49.932;11.592;2023-11-19T03:31:24;8.40;81.30
20568;DHT22;10442;49.932;11.592;2023-11-19T03:33:52;8.50;81.30
20568;DHT22;10442;49.932;11.592;2023-11-19T03:36:24;8.50;81.20
20568;DHT22;10442;49.932;11.592;2023-11-19T03:38:51;8.50;81.10
20568;DHT22;10442;49.932;11.592;2023-11-19T03:41:19;8.50;81.20
20568;DHT22;10442;49.932;11.592;2023-11-19T03:43:48;8.50;81.20
20568;DHT22;10442;49.932;11.592;2023-11-19T03:46:20;8.60;81.30
20568;DHT22;10442;49.932;11.592;2023-11-19T03:48:49;8.60;81.20
20568;DHT22;10442;49.932;11.592;2023-11-19T03:51:17;8.60;81.20
20568;DHT22;10442;49.932;11.592;2023-11-19T03:53:45;8.60;81.20
20568;DHT22;10442;49.932;11.592;2023-11-19T03:56:13;8.60;81.10
20568;DHT22;10442;49.932;11.592;2023-11-19T03:58:41;8.60;81.10
20568;DHT22;10442;49.932;11.592;2023-11-19T04:01:13;8.70;81.20
20568;DHT22;10442;49.932;11.592;2023-11-19T04:03:41;8.70;81.20
20568;DHT22;10442;49.932;11.592;2023-11-19T04:06:12;8.70;81.30
20568;DHT22;10442;49.932;11.592;2023-11-19T04:08:39;8.60;81.30
20568;DHT22;10442;49.932;11.592;2023-11-19T04:11:07;8.70;81.30
20568;DHT22;10442;49.932;11.592;2023-11-19T04:13:36;8.70;81.30
20568;DHT22;10442;49.932;11.592;2023-11-19T04:16:04;8.70;81.30
20568;DHT22;10442;49.932;11.592;2023-11-19T04:18:32;8.70;81.30
20568;DHT22;10442;49.932;11.592;2023-11-19T04:21:01;8.80;81.20
20568;DHT22;10442;49.932;11.592;2023-11-19T04:23:28;8.70;81.10
20568;DHT22;10442;49.932;11.592;2023-11-19T04:25:56;8.80;81.20
20568;DHT22;10442;49.932;11.592;2023-11-19T04:28:37;8.80;81.20
20568;DHT22;10442;49.932;11.592;2023-11-19T04:31:05;8.80;81.20
20568;DHT22;10442;49.932;11.592;2023-11-19T04:33:33;8.80;81.20
20568;DHT22;10442;49.932;11.592;2023-11-19T04:36:00;8.90;81.30
20568;DHT22;10442;49.932;11.592;2023-11-19T04:38:29;8.90;81.20
20568;DHT22;10442;49.932;11.592;2023-11-19T04:40:57;8.90;81.00
20568;DHT22;10442;49.932;11.592;2023-11-19T04:43:25;8.90;80.90
20568;DHT22;10442;49.932;11.592;2023-11-19T04:45:53;9.00;80.90
20568;DHT22;10442;49.932;11.592;2023-11-19T04:48:21;9.00;80.80
20568;DHT22;10442;49.932;11.592;2023-11-19T04:50:49;9.00;80.70
20568;DHT22;10442;49.932;11.592;2023-11-19T04:53:17;9.00;80.70
20568;DHT22;10442;49.932;11.592;2023-11-19T04:55:45;9.00;80.60
20568;DHT22;10442;49.932;11.592;2023-11-19T04:58:13;9.00;80.60
20568;DHT22;10442;49.932;11.592;2023-11-19T05:00:41;9.00;80.70
20568;DHT22;10442;49.932;11.592;2023-11-19T05:03:09;9.00;80.70
20568;DHT22;10442;49.932;11.592;2023-11-19T05:05:36;9.10;80.80
20568;DHT22;10442;49.932;11.592;2023-11-19T05:08:04;9.10;80.80
20568;DHT22;10442;49.932;11.592;2023-11-19T05:10:32;9.10;80.90
20568;DHT22;10442;49.932;11.592;2023-11-19T05:13:01;9.10;81.00
20568;DHT22;10442;49.932;11.592;2023-11-19T05:15:29;9.10;80.90
20568;DHT22;10442;49.932;11.592;2023-11-19T05:17:56;9.10;81.00
20568;DHT22;10442;49.932;11.592;2023-11-19T05:20:23;9.10;81.10
20568;DHT22;10442;49.932;11.592;2023-11-19T05:22:51;9.10;81.00
20568;DHT22;10442;49.932;11.592;2023-11-19T05:25:20;9.10;81.10
20568;DHT22;10442;49.932;11.592;2023-11-19T05:27:48;9.10;81.10
20568;DHT22;10442;49.932;11.592;2023-11-19T05:30:16;9.10;81.20
20568;DHT22;10442;49.932;11.592;2023-11-19T05:32:44;9.10;81.20
20568;DHT22;10442;49.932;11.592;2023-11-19T05:35:11;9.20;81.30
20568;DHT22;10442;49.932;11.592;2023-11-19T05:37:40;9.20;81.30
20568;DHT22;10442;49.932;11.592;2023-11-19T05:40:08;9.20;81.80
20568;DHT22;10442;49.932;11.592;2023-11-19T05:42:43;9.20;81.40
20568;DHT22;10442;49.932;11.592;2023-11-19T05:45:11;9.20;81.40
20568;DHT22;10442;49.932;11.592;2023-11-19T05:47:39;9.20;81.50
20568;DHT22;10442;49.932;11.592;2023-11-19T05:50:07;9.30;81.50
20568;DHT22;10442;49.932;11.592;2023-11-19T05:52:35;9.30;81.50
20568;DHT22;10442;49.932;11.592;2023-11-19T05:55:03;9.30;81.60
20568;DHT22;10442;49.932;11.592;2023-11-19T05:57:37;9.30;81.50
20568;DHT22;10442;49.932;11.592;2023-11-19T06:00:08;9.30;82.30
20568;DHT22;10442;49.932;11.592;2023-11-19T06:02:40;9.40;81.50
20568;DHT22;10442;49.932;11.592;2023-11-19T06:05:08;9.40;81.60
20568;DHT22;10442;49.932;11.592;2023-11-19T06:07:36;9.40;81.60
20568;DHT22;10442;49.932;11.592;2023-11-19T06:10:06;9.40;81.60
20568;DHT22;10442;49.932;11.592;2023-11-19T06:12:37;9.50;81.70
20568;DHT22;10442;49.932;11.592;2023-11-19T06:15:06;9.50;81.70
20568;DHT22;10442;49.932;11.592;2023-11-19T06:17:36;9.50;81.70
20568;DHT22;10442;49.932;11.592;2023-11-19T06:20:04;9.60;81.90
20568;DHT22;10442;49.932;11.592;2023-11-19T06:22:32;9.60;81.80
20568;DHT22;10442;49.932;11.592;2023-11-19T06:24:59;9.60;81.90
20568;DHT22;10442;49.932;11.592;2023-11-19T06:27:27;9.60;81.90
20568;DHT22;10442;49.932;11.592;2023-11-19T06:29:55;9.60;82.00
20568;DHT22;10442;49.932;11.592;2023-11-19T06:32:22;9.70;82.20
20568;DHT22;10442;49.932;11.592;2023-11-19T06:34:50;9.70;82.30
20568;DHT22;10442;49.932;11.592;2023-11-19T06:37:17;9.70;82.50
20568;DHT22;10442;49.932;11.592;2023-11-19T06:39:45;9.70;82.40
20568;DHT22;10442;49.932;11.592;2023-11-19T06:42:12;9.80;82.50
20568;DHT22;10442;49.932;11.592;2023-11-19T06:44:40;9.80;82.40
20568;DHT22;10442;49.932;11.592;2023-11-19T06:47:08;9.90;82.30
20568;DHT22;10442;49.932;11.592;2023-11-19T06:49:35;9.90;82.20
20568;DHT22;10442;49.932;11.592;2023-11-19T06:52:03;9.90;82.20
20568;DHT22;10442;49.932;11.592;2023-11-19T06:54:31;9.90;82.10
20568;DHT22;10442;49.932;11.592;2023-11-19T06:56:59;9.90;82.10
20568;DHT22;10442;49.932;11.592;2023-11-19T06:59:26;9.90;82.00
20568;DHT22;10442;49.932;11.592;2023-11-19T07:01:54;9.90;82.10
20568;DHT22;10442;49.932;11.592;2023-11-19T07:04:21;10.00;82.30
20568;DHT22;10442;49.932;11.592;2023-11-19T07:06:49;10.00;82.60
20568;DHT22;10442;49.932;11.592;2023-11-19T07:09:16;10.00;82.80
20568;DHT22;10442;49.932;11.592;2023-11-19T07:11:44;10.10;82.90
20568;DHT22;10442;49.932;11.592;2023-11-19T07:14:12;10.10;83.00
20568;DHT22;10442;49.932;11.592;2023-11-19T07:16:40;10.20;83.30
20568;DHT22;10442;49.932;11.592;2023-11-19T07:19:07;10.20;83.40
20568;DHT22;10442;49.932;11.592;2023-11-19T07:21:35;10.30;83.30
20568;DHT22;10442;49.932;11.592;2023-11-19T07:24:06;10.30;83.30
20568;DHT22;10442;49.932;11.592;2023-11-19T07:26:34;10.40;83.40
20568;DHT22;10442;49.932;11.592;2023-11-19T07:29:02;10.40;83.50
20568;DHT22;10442;49.932;11.592;2023-11-19T07:31:29;10.50;83.80
20568;DHT22;10442;49.932;11.592;2023-11-19T07:33:57;10.50;84.10
20568;DHT22;10442;49.932;11.592;2023-11-19T07:36:24;10.60;84.20
20568;DHT22;10442;49.932;11.592;2023-11-19T07:38:52;10.70;84.50
20568;DHT22;10442;49.932;11.592;2023-11-19T07:41:20;10.80;84.70
20568;DHT22;10442;49.932;11.592;2023-11-19T07:43:47;10.80;84.70
20568;DHT22;10442;49.932;11.592;2023-11-19T07:46:15;10.90;84.90
20568;DHT22;10442;49.932;11.592;2023-11-19T07:48:43;11.00;85.00
20568;DHT22;10442;49.932;11.592;2023-11-19T07:51:11;11.10;85.00
20568;DHT22;10442;49.932;11.592;2023-11-19T07:53:41;11.10;85.00
20568;DHT22;10442;49.932;11.592;2023-11-19T07:56:09;11.20;84.90
20568;DHT22;10442;49.932;11.592;2023-11-19T07:58:37;11.30;84.80
20568;DHT22;10442;49.932;11.592;2023-11-19T08:01:05;11.30;84.90
20568;DHT22;10442;49.932;11.592;2023-11-19T08:03:34;11.40;85.00
20568;DHT22;10442;49.932;11.592;2023-11-19T08:06:04;11.40;85.10
20568;DHT22;10442;49.932;11.592;2023-11-19T08:08:32;11.50;85.10
20568;DHT22;10442;49.932;11.592;2023-11-19T08:11:01;11.50;85.10
20568;DHT22;10442;49.932;11.592;2023-11-19T08:13:30;11.60;85.00
20568;DHT22;10442;49.932;11.592;2023-11-19T08:15:58;11.70;85.00
20568;DHT22;10442;49.932;11.592;2023-11-19T08:18:28;11.70;84.80
20568;DHT22;10442;49.932;11.592;2023-11-19T08:20:56;11.80;84.80
20568;DHT22;10442;49.932;11.592;2023-11-19T08:23:25;11.80;84.70
20568;DHT22;10442;49.932;11.592;2023-11-19T08:25:53;11.90;84.70
20568;DHT22;10442;49.932;11.592;2023-11-19T08:28:20;12.00;84.70
20568;DHT22;10442;49.932;11.592;2023-11-19T08:30:48;12.00;84.60
20568;DHT22;10442;49.932;11.592;2023-11-19T08:33:16;12.00;84.70
20568;DHT22;10442;49.932;11.592;2023-11-19T08:35:44;12.10;84.90
20568;DHT22;10442;49.932;11.592;2023-11-19T08:38:12;12.20;85.10
20568;DHT22;10442;49.932;11.592;2023-11-19T08:40:41;12.20;85.10
20568;DHT22;10442;49.932;11.592;2023-11-19T08:43:08;12.30;85.10
20568;DHT22;10442;49.932;11.592;2023-11-19T08:45:36;12.30;85.00
20568;DHT22;10442;49.932;11.592;2023-11-19T08:48:04;12.40;85.00
20568;DHT22;10442;49.932;11.592;2023-11-19T08:50:31;12.50;85.00
20568;DHT22;10442;49.932;11.592;2023-11-19T08:52:59;12.50;84.80
20568;DHT22;10442;49.932;11.592;2023-11-19T08:55:27;12.60;84.80
20568;DHT22;10442;49.932;11.592;2023-11-19T08:57:54;12.60;84.70
20568;DHT22;10442;49.932;11.592;2023-11-19T09:00:22;12.70;84.70
20568;DHT22;10442;49.932;11.592;2023-11-19T09:02:49;12.70;84.70
20568;DHT22;10442;49.932;11.592;2023-11-19T09:05:17;12.80;84.80
20568;DHT22;10442;49.932;11.592;2023-11-19T09:07:45;12.80;84.80
20568;DHT22;10442;49.932;11.592;2023-11-19T09:10:12;12.90;84.70
20568;DHT22;10442;49.932;11.592;2023-11-19T09:12:39;12.90;84.60
20568;DHT22;10442;49.932;11.592;2023-11-19T09:15:07;13.00;84.40
20568;DHT22;10442;49.932;11.592;2023-11-19T09:17:37;13.10;84.30
20568;DHT22;10442;49.932;11.592;2023-11-19T09:20:05;13.10;84.00
20568;DHT22;10442;49.932;11.592;2023-11-19T09:22:33;13.10;83.80
20568;DHT22;10442;49.932;11.592;2023-11-19T09:25:01;13.20;83.70
20568;DHT22;10442;49.932;11.592;2023-11-19T09:27:28;13.20;83.50
20568;DHT22;10442;49.932;11.592;2023-11-19T09:29:56;13.20;83.40
20568;DHT22;10442;49.932;11.592;2023-11-19T09:32:25;13.30;83.50
20568;DHT22;10442;49.932;11.592;2023-11-19T09:34:54;13.30;83.70
20568;DHT22;10442;49.932;11.592;2023-11-19T09:37:22;13.30;83.70
20568;DHT22;10442;49.932;11.592;2023-11-19T09:39:49;13.40;83.70
20568;DHT22;10442;49.932;11.592;2023-11-19T09:42:17;13.40;83.60
20568;DHT22;10442;49.932;11.592;2023-11-19T09:44:45;13.50;83.70
20568;DHT22;10442;49.932;11.592;2023-11-19T09:47:16;13.60;83.80
20568;DHT22;10442;49.932;11.592;2023-11-19T09:49:44;13.60;84.00
20568;DHT22;10442;49.932;11.592;2023-11-19T09:52:11;13.80;84.10
20568;DHT22;10442;49.932;11.592;2023-11-19T09:54:39;13.80;83.80
20568;DHT22;10442;49.932;11.592;2023-11-19T09:57:08;13.90;83.60
20568;DHT22;10442;49.932;11.592;2023-11-19T09:59:38;14.00;83.30
20568;DHT22;10442;49.932;11.592;2023-11-19T10:02:07;14.10;82.90
20568;DHT22;10442;49.932;11.592;2023-11-19T10:04:36;14.20;82.90
20568;DHT22;10442;49.932;11.592;2023-11-19T10:07:05;14.30;83.00
20568;DHT22;10442;49.932;11.592;2023-11-19T10:09:33;14.40;83.00
20568;DHT22;10442;49.932;11.592;2023-11-19T10:12:01;14.50;83.20
20568;DHT22;10442;49.932;11.592;2023-11-19T10:14:30;14.60;83.00
20568;DHT22;10442;49.932;11.592;2023-11-19T10:16:58;14.70;83.10
20568;DHT22;10442;49.932;11.592;2023-11-19T10:19:31;14.80;82.90
20568;DHT22;10442;49.932;11.592;2023-11-19T10:22:06;14.90;82.50
20568;DHT22;10442;49.932;11.592;2023-11-19T10:24:34;15.00;82.00
20568;DHT22;10442;49.932;11.592;2023-11-19T10:27:09;15.00;81.50
20568;DHT22;10442;49.932;11.592;2023-11-19T10:29:37;15.10;80.90
20568;DHT22;10442;49.932;11.592;2023-11-19T10:32:07;15.10;80.40
20568;DHT22;10442;49.932;11.592;2023-11-19T10:35:04;15.10;80.10
20568;DHT22;10442;49.932;11.592;2023-11-19T10:37:33;15.10;80.00
20568;DHT22;10442;49.932;11.592;2023-11-19T10:40:03;15.10;79.80
20568;DHT22;10442;49.932;11.592;2023-11-19T10:42:32;15.00;79.80
20568;DHT22;10442;49.932;11.592;2023-11-19T10:45:00;15.00;79.90
20568;DHT22;10442;49.932;11.592;2023-11-19T10:47:27;14.90;79.60
20568;DHT22;10442;49.932;11.592;2023-11-19T10:50:01;14.90;79.70
20568;DHT22;10442;49.932;11.592;2023-11-19T10:52:29;14.90;79.90
20568;DHT22;10442;49.932;11.592;2023-11-19T10:55:00;14.90;80.00
20568;DHT22;10442;49.932;11.592;2023-11-19T10:57:30;14.80;80.00
20568;DHT22;10442;49.932;11.592;2023-11-19T11:00:02;14.80;80.10
20568;DHT22;10442;49.932;11.592;2023-11-19T11:02:34;14.80;80.30
20568;DHT22;10442;49.932;11.592;2023-11-19T11:05:05;14.70;80.30
20568;DHT22;10442;49.932;11.592;2023-11-19T11:07:34;14.70;80.50
20568;DHT22;10442;49.932;11.592;2023-11-19T11:10:08;14.70;80.70
20568;DHT22;10442;49.932;11.592;2023-11-19T11:12:37;14.70;80.90
20568;DHT22;10442;49.932;11.592;2023-11-19T11:15:07;14.70;81.10
20568;DHT22;10442;49.932;11.592;2023-11-19T11:17:36;14.70;81.30
20568;DHT22;10442;49.932;11.592;2023-11-19T11:20:05;14.70;81.80
20568;DHT22;10442;49.932;11.592;2023-11-19T11:22:49;14.70;82.40
20568;DHT22;10442;49.932;11.592;2023-11-19T11:28:18;14.80;82.50
20568;DHT22;10442;49.932;11.592;2023-11-19T11:36:38;14.90;81.90
20568;DHT22;10442;49.932;11.592;2023-11-19T11:39:09;14.90;81.80
20568;DHT22;10442;49.932;11.592;2023-11-19T11:41:36;14.90;81.60
20568;DHT22;10442;49.932;11.592;2023-11-19T11:44:04;14.90;81.80
20568;DHT22;10442;49.932;11.592;2023-11-19T11:49:07;15.00;81.90
20568;DHT22;10442;49.932;11.592;2023-11-19T11:51:59;15.00;81.80
20568;DHT22;10442;49.932;11.592;2023-11-19T11:54:28;15.10;81.50
20568;DHT22;10442;49.932;11.592;2023-11-19T11:57:10;15.20;81.90
20568;DHT22;10442;49.932;11.592;2023-11-19T11:59:46;15.30;82.10
20568;DHT22;10442;49.932;11.592;2023-11-19T12:02:17;15.40;81.60
20568;DHT22;10442;49.932;11.592;2023-11-19T12:04:50;15.50;81.00
20568;DHT22;10442;49.932;11.592;2023-11-19T12:07:23;15.50;80.60
20568;DHT22;10442;49.932;11.592;2023-11-19T12:10:12;15.50;80.70
20568;DHT22;10442;49.932;11.592;2023-11-19T12:12:40;15.60;80.80
20568;DHT22;10442;49.932;11.592;2023-11-19T12:15:09;15.60;80.80
20568;DHT22;10442;49.932;11.592;2023-11-19T12:17:42;15.70;80.60
20568;DHT22;10442;49.932;11.592;2023-11-19T12:20:13;15.70;80.40
20568;DHT22;10442;49.932;11.592;2023-11-19T12:22:42;15.80;80.40
20568;DHT22;10442;49.932;11.592;2023-11-19T12:25:11;15.80;80.70
20568;DHT22;10442;49.932;11.592;2023-11-19T12:27:41;15.90;80.60
20568;DHT22;10442;49.932;11.592;2023-11-19T12:30:09;16.00;80.20
20568;DHT22;10442;49.932;11.592;2023-11-19T12:32:46;16.00;80.20
20568;DHT22;10442;49.932;11.592;2023-11-19T12:35:14;16.10;79.60
20568;DHT22;10442;49.932;11.592;2023-11-19T12:37:42;16.10;79.20
20568;DHT22;10442;49.932;11.592;2023-11-19T12:40:15;16.10;78.80
20568;DHT22;10442;49.932;11.592;2023-11-19T12:42:47;16.10;78.00
20568;DHT22;10442;49.932;11.592;2023-11-19T12:45:15;16.10;77.80
20568;DHT22;10442;49.932;11.592;2023-11-19T12:47:44;16.10;77.30
20568;DHT22;10442;49.932;11.592;2023-11-19T12:50:11;16.00;76.90
20568;DHT22;10442;49.932;11.592;2023-11-19T12:52:39;15.90;76.80
20568;DHT22;10442;49.932;11.592;2023-11-19T12:55:26;15.90;77.20
20568;DHT22;10442;49.932;11.592;2023-11-19T12:57:57;15.80;77.30
20568;DHT22;10442;49.932;11.592;2023-11-19T13:00:26;15.70;77.50
20568;DHT22;10442;49.932;11.592;2023-11-19T13:02:56;15.70;77.60
20568;DHT22;10442;49.932;11.592;2023-11-19T13:05:37;15.60;77.20
20568;DHT22;10442;49.932;11.592;2023-11-19T13:08:07;15.60;78.00
20568;DHT22;10442;49.932;11.592;2023-11-19T13:13:15;15.50;77.20
20568;DHT22;10442;49.932;11.592;2023-11-19T13:15:43;15.50;77.50
20568;DHT22;10442;49.932;11.592;2023-11-19T13:18:16;15.40;77.30
20568;DHT22;10442;49.932;11.592;2023-11-19T13:20:44;15.40;76.40
20568;DHT22;10442;49.932;11.592;2023-11-19T13:23:11;15.40;76.50
20568;DHT22;10442;49.932;11.592;2023-11-19T13:25:39;15.50;77.00
20568;DHT22;10442;49.932;11.592;2023-11-19T13:28:07;15.40;76.90
20568;DHT22;10442;49.932;11.592;2023-11-19T13:30:34;15.50;76.70
20568;DHT22;10442;49.932;11.592;2023-11-19T13:33:02;15.40;76.80
20568;DHT22;10442;49.932;11.592;2023-11-19T13:35:30;15.50;76.90
20568;DHT22;10442;49.932;11.592;2023-11-19T13:37:57;15.40;76.50
20568;DHT22;10442;49.932;11.592;2023-11-19T13:40:28;15.40;76.20
20568;DHT22;10442;49.932;11.592;2023-11-19T13:42:55;15.40;76.10
20568;DHT22;10442;49.932;11.592;2023-11-19T13:45:23;15.40;76.10
20568;DHT22;10442;49.932;11.592;2023-11-19T13:47:50;15.40;76.20
20568;DHT22;10442;49.932;11.592;2023-11-19T13:50:18;15.50;75.80
20568;DHT22;10442;49.932;11.592;2023-11-19T13:52:46;15.40;75.60
20568;DHT22;10442;49.932;11.592;2023-11-19T13:55:16;15.30;75.70
20568;DHT22;10442;49.932;11.592;2023-11-19T13:57:43;15.40;75.60
20568;DHT22;10442;49.932;11.592;2023-11-19T14:00:12;15.30;75.50
20568;DHT22;10442;49.932;11.592;2023-11-19T14:02:41;15.30;75.60
20568;DHT22;10442;49.932;11.592;2023-11-19T14:05:09;15.30;75.50
20568;DHT22;10442;49.932;11.592;2023-11-19T14:07:39;15.30;75.50
20568;DHT22;10442;49.932;11.592;2023-11-19T14:10:08;15.30;75.80
20568;DHT22;10442;49.932;11.592;2023-11-19T14:12:39;15.30;75.80
20568;DHT22;10442;49.932;11.592;2023-11-19T14:15:08;15.30;75.50
20568;DHT22;10442;49.932;11.592;2023-11-19T14:17:36;15.40;75.30
20568;DHT22;10442;49.932;11.592;2023-11-19T14:20:04;15.40;75.30
20568;DHT22;10442;49.932;11.592;2023-11-19T14:22:44;15.40;75.10
20568;DHT22;10442;49.932;11.592;2023-11-19T14:25:12;15.30;74.90
20568;DHT22;10442;49.932;11.592;2023-11-19T14:27:40;15.30;74.80
20568;DHT22;10442;49.932;11.592;2023-11-19T14:30:10;15.30;74.80
20568;DHT22;10442;49.932;11.592;2023-11-19T14:32:40;15.30;74.90
20568;DHT22;10442;49.932;11.592;2023-11-19T14:35:08;15.20;74.60
20568;DHT22;10442;49.932;11.592;2023-11-19T14:37:35;15.20;74.60
20568;DHT22;10442;49.932;11.592;2023-11-19T14:40:03;15.10;74.40
20568;DHT22;10442;49.932;11.592;2023-11-19T14:42:32;15.10;74.30
20568;DHT22;10442;49.932;11.592;2023-11-19T14:45:00;15.10;74.50
20568;DHT22;10442;49.932;11.592;2023-11-19T14:47:27;15.00;74.50
20568;DHT22;10442;49.932;11.592;2023-11-19T14:49:56;15.00;74.60
20568;DHT22;10442;49.932;11.592;2023-11-19T14:52:24;15.00;74.90
20568;DHT22;10442;49.932;11.592;2023-11-19T14:54:51;14.90;75.00
20568;DHT22;10442;49.932;11.592;2023-11-19T14:57:21;14.90;74.80
20568;DHT22;10442;49.932;11.592;2023-11-19T14:59:48;14.90;74.60
20568;DHT22;10442;49.932;11.592;2023-11-19T15:02:16;14.80;74.90
20568;DHT22;10442;49.932;11.592;2023-11-19T15:04:44;14.80;75.10
20568;DHT22;10442;49.932;11.592;2023-11-19T15:07:12;14.80;75.00
20568;DHT22;10442;49.932;11.592;2023-11-19T15:09:39;14.80;75.10
20568;DHT22;10442;49.932;11.592;2023-11-19T15:12:06;14.70;74.90
20568;DHT22;10442;49.932;11.592;2023-11-19T15:14:34;14.70;75.10
20568;DHT22;10442;49.932;11.592;2023-11-19T15:17:02;14.70;75.10
20568;DHT22;10442;49.932;11.592;2023-11-19T15:19:30;14.60;75.20
20568;DHT22;10442;49.932;11.592;2023-11-19T15:21:57;14.60;75.40
20568;DHT22;10442;49.932;11.592;2023-11-19T15:24:25;14.60;75.40
20568;DHT22;10442;49.932;11.592;2023-11-19T15:26:53;14.60;75.50
20568;DHT22;10442;49.932;11.592;2023-11-19T15:29:39;14.60;75.60
20568;DHT22;10442;49.932;11.592;2023-11-19T15:32:07;14.60;75.80
20568;DHT22;10442;49.932;11.592;2023-11-19T15:34:34;14.50;75.80
20568;DHT22;10442;49.932;11.592;2023-11-19T15:37:05;14.50;76.00
20568;DHT22;10442;49.932;11.592;2023-11-19T15:39:33;14.50;76.10
20568;DHT22;10442;49.932;11.592;2023-11-19T15:42:03;14.50;76.10
20568;DHT22;10442;49.932;11.592;2023-11-19T15:44:30;14.40;76.10
20568;DHT22;10442;49.932;11.592;2023-11-19T15:46:58;14.30;76.00
20568;DHT22;10442;49.932;11.592;2023-11-19T15:49:26;14.30;76.00